Delavan, Kansas
Current Conditions -  °F | °C
As of 1:58 AM on Thursday 29 Jan 2015 (Local Time) from KFRI Reporting Station
Clear Clear  
Wind Chill: 50°   Ceiling: Unl
Heat Index: 50°   Visibility: 10mi
Dew Point: 34°   Wind: 13mph
Humidity: 53%   Direction: 330°NNW
Pressure: 30.07"   Gusts: 17mph
Location:  38.7322°N, 97.0904°W
Report Text: KFRI 290758Z AUTO 33011G15KT 310V010 10SM CLR 10/01 A3007 RMK AO2 SLP179 T01000009
Loading
Personal Weather Stations






























Interactive Weather Map New forecast layout! Learn more

10-Day Weather Forecast

Advertisements
Track Severe Weather on mobile